Time;durP1;ratioP1;P1;durP2;ratioP2;P2;SDS_P1;SDS_P2;PMS_P1;PMS_P2;Temp;Humidity;BMP_temperature;BMP_pressure;BME280_temperature;BME280_humidity;BME280_pressure;Samples;Min_cycle;Max_cycle;Signal;HPM_P1;HPM_P2
2020/12/29 00:02:52;;;;;;;22.63;11.23;;;;;;;0.29;100.00;94956.66;3703148;79;44055;-18
2020/12/29 00:07:57;;;;;;;18.20;10.80;;;;;;;0.32;100.00;94955.98;3746160;78;44044;-18
2020/12/29 00:13:03;;;;;;;17.90;10.37;;;;;;;0.32;100.00;94955.50;3711522;79;44679;-18
2020/12/29 00:18:09;;;;;;;19.63;11.03;;;;;;;0.32;100.00;94966.09;3703173;80;44065;-18
2020/12/29 00:23:16;;;;;;;17.27;10.53;;;;;;;0.26;100.00;94966.31;3703491;79;44047;-18
2020/12/29 00:28:21;;;;;;;18.60;10.33;;;;;;;0.26;100.00;94962.83;3703507;79;44046;-18
2020/12/29 00:33:27;;;;;;;17.60;10.50;;;;;;;0.30;100.00;94954.86;3703947;79;43358;-18
2020/12/29 00:38:33;;;;;;;18.53;10.50;;;;;;;0.36;100.00;94938.22;3723312;78;44045;-18
2020/12/29 00:43:39;;;;;;;17.40;10.07;;;;;;;0.39;100.00;94945.00;3706023;79;43678;-17
2020/12/29 00:48:45;;;;;;;17.23;10.43;;;;;;;0.38;100.00;94948.13;3703825;80;44031;-18
2020/12/29 00:53:51;;;;;;;18.83;10.70;;;;;;;0.35;100.00;94943.71;3706604;79;43660;-18
2020/12/29 00:58:57;;;;;;;19.97;10.60;;;;;;;0.30;100.00;94960.95;3708559;79;43685;-18
2020/12/29 01:04:06;;;;;;;19.30;10.97;;;;;;;0.19;100.00;94966.70;3708972;79;26401;-18
2020/12/29 01:09:12;;;;;;;18.13;10.50;;;;;;;0.16;100.00;94953.86;3708641;79;43369;-18
2020/12/29 01:14:18;;;;;;;19.73;10.57;;;;;;;0.16;100.00;94980.33;3708238;80;43286;-17
2020/12/29 01:19:34;;;;;;;18.80;10.80;;;;;;;0.17;100.00;94978.00;3708393;80;26347;-17
2020/12/29 01:24:40;;;;;;;19.27;10.53;;;;;;;0.16;100.00;94986.95;3649470;81;44018;-17
2020/12/29 01:29:46;;;;;;;21.17;11.10;;;;;;;0.17;100.00;94997.02;3600122;80;43294;-17
2020/12/29 01:34:52;;;;;;;20.23;11.50;;;;;;;0.23;100.00;94993.14;3587105;83;44033;-17
2020/12/29 01:39:58;;;;;;;20.80;10.97;;;;;;;0.23;100.00;94990.50;3579021;83;43370;-17
2020/12/29 01:45:07;;;;;;;17.17;9.73;;;;;;;0.18;100.00;94990.72;3584703;81;44116;-17
2020/12/29 01:50:15;;;;;;;18.50;10.60;;;;;;;0.14;100.00;94982.33;3645116;81;43709;-16
2020/12/29 01:55:21;;;;;;;17.80;10.13;;;;;;;0.06;100.00;94985.06;3574717;81;43458;-16
2020/12/29 02:00:27;;;;;;;17.47;10.07;;;;;;;0.02;100.00;94974.00;3700712;79;44031;-16
2020/12/29 02:05:33;;;;;;;18.70;10.43;;;;;;;-0.03;100.00;94974.55;3703229;79;43766;-17
2020/12/29 02:10:41;;;;;;;17.30;9.83;;;;;;;-0.12;100.00;94982.76;3703122;80;43676;-17
2020/12/29 02:15:46;;;;;;;19.30;9.90;;;;;;;-0.14;100.00;94985.56;3729958;78;44446;-17
2020/12/29 02:20:52;;;;;;;17.83;9.93;;;;;;;-0.12;100.00;94977.47;3727654;79;44046;-17
2020/12/29 02:25:58;;;;;;;17.07;9.13;;;;;;;0.02;100.00;94977.16;3703205;79;44128;-17
2020/12/29 02:31:04;;;;;;;18.03;9.87;;;;;;;-0.06;100.00;94983.34;3701563;78;43718;-17
2020/12/29 02:36:11;;;;;;;18.87;10.40;;;;;;;-0.06;100.00;94989.45;3702185;79;44015;-17
2020/12/29 02:41:18;;;;;;;19.03;10.27;;;;;;;-0.06;100.00;94997.90;3701137;80;44057;-17
2020/12/29 02:46:23;;;;;;;15.77;9.30;;;;;;;-0.09;100.00;94994.28;3718604;78;43984;-17
2020/12/29 02:51:30;;;;;;;17.73;9.23;;;;;;;-0.14;100.00;94995.34;3723263;79;42945;-17
2020/12/29 02:56:35;;;;;;;14.27;8.10;;;;;;;-0.23;100.00;94994.58;3720047;80;43361;-17
2020/12/29 03:01:42;;;;;;;16.43;8.70;;;;;;;-0.13;100.00;94999.11;3719432;78;44036;-17
2020/12/29 03:06:49;;;;;;;15.00;8.40;;;;;;;-0.13;100.00;94993.82;3720174;80;44033;-17
2020/12/29 03:11:56;;;;;;;14.53;7.90;;;;;;;-0.23;100.00;94999.35;3718789;78;43333;-17
2020/12/29 03:17:01;;;;;;;12.93;7.67;;;;;;;-0.26;100.00;95001.06;3723432;78;43716;-17
2020/12/29 03:22:07;;;;;;;14.83;7.40;;;;;;;-0.26;100.00;94992.28;3734404;79;43369;-17
2020/12/29 03:27:13;;;;;;;14.40;7.83;;;;;;;-0.09;100.00;94997.77;3720097;80;44112;-17
2020/12/29 03:32:18;;;;;;;12.53;7.57;;;;;;;-0.18;100.00;95001.48;3719877;78;43351;-17
2020/12/29 03:37:24;;;;;;;12.67;7.40;;;;;;;-0.24;100.00;95015.41;3719758;80;44096;-17
2020/12/29 03:42:30;;;;;;;13.47;7.93;;;;;;;-0.30;100.00;95029.36;3719813;80;43689;-17
2020/12/29 03:47:36;;;;;;;13.07;7.90;;;;;;;-0.31;100.00;95027.20;3720107;78;44132;-17
2020/12/29 03:52:41;;;;;;;12.87;7.37;;;;;;;-0.35;100.00;95024.58;3716667;78;44180;-17
2020/12/29 03:57:47;;;;;;;13.70;7.97;;;;;;;-0.43;100.00;95033.42;3700753;80;43458;-17
2020/12/29 04:02:53;;;;;;;14.20;7.70;;;;;;;-0.49;100.00;95048.66;3702587;79;43136;-17
2020/12/29 04:07:59;;;;;;;12.97;7.63;;;;;;;-0.55;100.00;95035.64;3703758;80;43682;-17
2020/12/29 04:13:05;;;;;;;12.17;7.37;;;;;;;-0.53;100.00;95041.58;3702979;80;43691;-17
2020/12/29 04:18:11;;;;;;;13.63;7.47;;;;;;;-0.51;100.00;95046.67;3703541;80;44062;-17
2020/12/29 04:23:17;;;;;;;14.50;8.30;;;;;;;-0.50;100.00;95041.72;3702381;78;43718;-17
2020/12/29 04:28:23;;;;;;;13.30;8.23;;;;;;;-0.41;100.00;95049.09;3701636;79;44079;-17
2020/12/29 04:33:30;;;;;;;17.00;8.90;;;;;;;-0.26;100.00;95043.86;3703400;79;43282;-17
2020/12/29 04:38:36;;;;;;;14.63;8.30;;;;;;;-0.24;100.00;95042.70;3701088;80;43181;-17
2020/12/29 04:43:43;;;;;;;17.23;9.73;;;;;;;-0.29;100.00;95049.53;3702676;80;44075;-17
2020/12/29 04:48:49;;;;;;;14.47;8.43;;;;;;;-0.32;100.00;95055.97;3703361;79;43710;-17
2020/12/29 04:53:58;;;;;;;14.50;8.57;;;;;;;-0.32;100.00;95052.00;3702915;78;43718;-17
2020/12/29 04:59:06;;;;;;;16.67;8.30;;;;;;;-0.22;100.00;95057.06;3754781;79;43986;-17
2020/12/29 05:04:13;;;;;;;17.30;9.73;;;;;;;-0.21;100.00;95056.88;3699682;79;43722;-17
2020/12/29 05:09:19;;;;;;;15.77;8.53;;;;;;;-0.22;100.00;95061.03;3701489;79;43980;-17
2020/12/29 05:14:27;;;;;;;14.00;8.13;;;;;;;-0.24;100.00;95064.34;3702106;79;43211;-17
2020/12/29 05:19:34;;;;;;;14.27;8.60;;;;;;;-0.26;100.00;95067.66;3702547;79;44018;-17
2020/12/29 05:24:43;;;;;;;15.17;8.43;;;;;;;-0.32;100.00;95068.71;3696636;79;43347;-18
2020/12/29 05:29:49;;;;;;;14.80;8.70;;;;;;;-0.27;100.00;95082.72;3701198;78;44338;-16
2020/12/29 05:34:59;;;;;;;13.97;7.80;;;;;;;-0.06;100.00;95086.02;3702861;79;43693;-17
2020/12/29 05:40:24;;;;;;;13.07;8.30;;;;;;;0.09;100.00;95090.54;3702263;79;43310;-17
2020/12/29 05:45:32;;;;;;;13.20;7.30;;;;;;;0.13;100.00;95099.78;3643339;81;44059;-17
2020/12/29 05:50:38;;;;;;;13.20;7.97;;;;;;;0.21;100.00;95097.56;3660540;80;43386;-17
2020/12/29 05:55:46;;;;;;;12.77;7.20;;;;;;;0.28;100.00;95112.56;3643270;81;44069;-17
2020/12/29 06:00:52;;;;;;;13.00;7.23;;;;;;;0.32;100.00;95126.74;3701067;78;44435;-17
2020/12/29 06:06:00;;;;;;;10.07;6.67;;;;;;;0.42;100.00;95117.56;3702771;79;43310;-17
2020/12/29 06:11:13;;;;;;;9.57;6.50;;;;;;;0.48;100.00;95124.44;3701622;80;44852;-17
2020/12/29 06:16:21;;;;;;;10.70;6.23;;;;;;;0.50;100.00;95121.96;3703291;79;43716;-17
2020/12/29 06:21:28;;;;;;;8.67;5.77;;;;;;;0.66;100.00;95140.00;3702577;79;43479;-17
2020/12/29 06:26:37;;;;;;;10.30;5.90;;;;;;;0.74;100.00;95139.42;3703825;80;44074;-17
2020/12/29 06:31:44;;;;;;;9.47;5.60;;;;;;;0.80;100.00;95141.05;3704048;78;44053;-17
2020/12/29 06:36:52;;;;;;;7.87;5.07;;;;;;;0.86;100.00;95146.44;3698594;80;43598;-18
2020/12/29 06:41:59;;;;;;;6.93;4.67;;;;;;;0.85;100.00;95143.47;3695879;80;44058;-19
2020/12/29 06:47:13;;;;;;;6.30;4.53;;;;;;;0.92;100.00;95151.00;3695833;80;43687;-18
2020/12/29 06:52:22;;;;;;;6.10;4.33;;;;;;;1.00;100.00;95165.19;3697934;80;44048;-18
2020/12/29 06:57:47;;;;;;;8.27;5.20;;;;;;;1.01;100.00;95174.76;3707014;79;44152;-18
2020/12/29 07:02:54;;;;;;;7.37;4.90;;;;;;;1.01;100.00;95176.92;3618614;80;44037;-18
2020/12/29 07:08:02;;;;;;;7.00;4.67;;;;;;;0.97;100.00;95183.58;3705778;80;43418;-19
2020/12/29 07:13:10;;;;;;;8.47;5.30;;;;;;;0.98;100.00;95187.07;3708518;79;44017;-18
2020/12/29 07:18:23;;;;;;;7.73;5.13;;;;;;;0.97;100.00;95184.91;3708314;79;43720;-18
2020/12/29 07:23:30;;;;;;;7.37;5.17;;;;;;;0.94;100.00;95194.56;3619026;81;44053;-18
2020/12/29 07:28:39;;;;;;;8.33;4.80;;;;;;;0.96;100.00;95207.11;3619380;82;43734;-18
2020/12/29 07:33:52;;;;;;;8.40;6.00;;;;;;;1.05;100.00;95211.83;3619704;80;44076;-18
2020/12/29 07:39:00;;;;;;;7.80;5.10;;;;;;;1.11;100.00;95213.78;3563050;83;43410;-18
2020/12/29 07:44:05;;;;;;;7.07;4.90;;;;;;;1.09;100.00;95206.50;3643702;81;43129;-18
2020/12/29 07:49:11;;;;;;;6.17;4.53;;;;;;;1.08;100.00;95208.83;3645250;80;44045;-18
2020/12/29 07:54:19;;;;;;;6.60;4.80;;;;;;;1.03;100.00;95208.53;3621266;81;43685;-19
2020/12/29 07:59:25;;;;;;;6.50;5.03;;;;;;;1.01;100.00;95209.21;3701097;80;44037;-18
2020/12/29 08:04:33;;;;;;;8.07;5.37;;;;;;;1.03;100.00;95210.70;3692426;80;43997;-18
2020/12/29 08:09:46;;;;;;;7.40;4.87;;;;;;;1.06;100.00;95221.44;3725583;78;43755;-17
2020/12/29 08:14:53;;;;;;;6.50;4.53;;;;;;;1.09;100.00;95226.38;3701581;78;43677;-17
2020/12/29 08:20:02;;;;;;;7.33;5.00;;;;;;;1.13;100.00;95236.92;3700800;80;43721;-18
2020/12/29 08:25:10;;;;;;;8.10;4.80;;;;;;;1.22;100.00;95231.89;3703183;79;43979;-18
2020/12/29 08:30:18;;;;;;;6.73;4.80;;;;;;;1.34;100.00;95246.83;3700831;79;43959;-18
2020/12/29 08:35:25;;;;;;;7.53;5.30;;;;;;;1.47;100.00;95246.18;3694107;80;43413;-18
2020/12/29 08:40:34;;;;;;;7.53;5.23;;;;;;;1.59;100.00;95256.36;3701031;78;43223;-18
2020/12/29 08:45:42;;;;;;;6.43;4.70;;;;;;;1.70;100.00;95269.17;3695886;79;44707;-18
2020/12/29 08:50:48;;;;;;;9.13;5.20;;;;;;;1.82;100.00;95270.32;3694659;80;43409;-18
2020/12/29 08:55:55;;;;;;;6.23;4.37;;;;;;;1.88;100.00;95281.22;3695443;79;43677;-18
2020/12/29 09:01:01;;;;;;;5.87;4.07;;;;;;;1.96;100.00;95283.77;3693772;79;44765;-18
2020/12/29 09:06:07;;;;;;;6.27;4.50;;;;;;;1.99;100.00;95287.39;3699148;79;43970;-18
2020/12/29 09:11:15;;;;;;;5.23;3.93;;;;;;;2.00;100.00;95295.16;3700626;79;43693;-18
2020/12/29 09:16:22;;;;;;;4.67;3.63;;;;;;;2.10;100.00;95306.02;3698640;79;44055;-18
2020/12/29 09:21:28;;;;;;;4.43;2.90;;;;;;;2.30;100.00;95311.05;3696532;80;43487;-18
2020/12/29 09:26:38;;;;;;;4.07;2.60;;;;;;;2.45;100.00;95320.31;3696965;79;44117;-19
2020/12/29 09:31:47;;;;;;;2.60;2.20;;;;;;;2.52;100.00;95323.56;3690552;79;44105;-19
2020/12/29 09:36:53;;;;;;;3.30;2.40;;;;;;;2.51;100.00;95325.90;3694703;79;43256;-19
2020/12/29 09:41:59;;;;;;;3.47;2.20;;;;;;;2.51;100.00;95334.68;3694765;79;43724;-19
2020/12/29 09:47:05;;;;;;;2.10;1.90;;;;;;;2.56;100.00;95346.08;3694494;79;44116;-19
2020/12/29 09:52:11;;;;;;;2.47;2.10;;;;;;;2.60;100.00;95351.34;3704032;79;44144;-19
2020/12/29 09:57:17;;;;;;;2.23;1.90;;;;;;;2.66;100.00;95363.86;3697971;79;43702;-19
2020/12/29 10:02:24;;;;;;;3.80;2.10;;;;;;;2.85;100.00;95365.62;3673095;80;43975;-19
2020/12/29 10:07:30;;;;;;;3.03;2.30;;;;;;;3.11;100.00;95370.38;3644589;80;43691;-19
2020/12/29 10:12:36;;;;;;;2.53;2.07;;;;;;;3.21;100.00;95382.03;3664849;80;43340;-19
2020/12/29 10:17:41;;;;;;;3.53;2.60;;;;;;;3.19;100.00;95387.53;3565633;82;44463;-17
2020/12/29 10:22:48;;;;;;;4.07;2.73;;;;;;;3.30;100.00;95393.34;3689191;78;44164;-18
2020/12/29 10:27:54;;;;;;;2.10;1.90;;;;;;;3.34;100.00;95401.27;3716536;78;43718;-19
2020/12/29 10:33:00;;;;;;;2.10;1.90;;;;;;;3.27;100.00;95405.20;3677462;79;43707;-17
2020/12/29 10:38:06;;;;;;;2.20;1.80;;;;;;;3.44;100.00;95410.28;3650926;80;44021;-17
2020/12/29 10:43:11;;;;;;;2.20;1.53;;;;;;;3.43;100.00;95425.92;3668325;78;43744;-18
2020/12/29 10:48:17;;;;;;;2.00;1.43;;;;;;;3.44;100.00;95427.58;3661514;80;44035;-18
2020/12/29 10:53:23;;;;;;;2.23;1.53;;;;;;;3.42;100.00;95434.92;3651052;80;43694;-18
2020/12/29 10:58:30;;;;;;;1.83;1.20;;;;;;;3.45;100.00;95451.84;3707250;78;44050;-18
2020/12/29 11:03:36;;;;;;;1.27;1.17;;;;;;;3.42;100.00;95457.02;3713692;78;44454;-18
2020/12/29 11:08:42;;;;;;;1.00;0.90;;;;;;;3.65;100.00;95458.66;3721477;80;43465;-18
2020/12/29 11:13:49;;;;;;;0.93;0.73;;;;;;;3.42;100.00;95468.18;3719023;80;44070;-18
2020/12/29 11:18:55;;;;;;;1.43;0.90;;;;;;;3.46;100.00;95498.73;3721788;77;43474;-19
2020/12/29 11:24:00;;;;;;;1.20;1.00;;;;;;;3.35;100.00;95495.53;3721301;78;44092;-18
2020/12/29 11:29:07;;;;;;;1.30;0.90;;;;;;;3.25;100.00;95513.63;3719778;80;43684;-18
2020/12/29 11:34:12;;;;;;;1.00;0.90;;;;;;;3.20;100.00;95521.37;3719136;78;43522;-18
2020/12/29 11:39:18;;;;;;;0.90;0.60;;;;;;;3.18;100.00;95521.53;3716987;80;44124;-18
2020/12/29 11:44:24;;;;;;;0.60;0.60;;;;;;;3.14;100.00;95533.58;3701215;80;44787;-18
2020/12/29 11:49:29;;;;;;;0.97;0.80;;;;;;;3.17;100.00;95539.86;3720214;78;44768;-18
2020/12/29 11:54:35;;;;;;;0.80;0.80;;;;;;;3.32;100.00;95544.31;3720281;78;44041;-18
2020/12/29 11:59:42;;;;;;;0.70;0.70;;;;;;;3.38;100.00;95555.03;3710657;78;43291;-18
2020/12/29 12:04:47;;;;;;;1.43;0.80;;;;;;;3.35;100.00;95567.38;3703321;79;44217;-17
2020/12/29 12:09:53;;;;;;;0.60;0.60;;;;;;;3.34;100.00;95588.85;3703147;80;43996;-18
2020/12/29 12:14:59;;;;;;;1.43;1.00;;;;;;;3.31;100.00;95598.04;3703238;79;43709;-18
2020/12/29 12:20:05;;;;;;;0.83;0.53;;;;;;;3.27;100.00;95619.36;3704056;79;44041;-20
2020/12/29 12:25:11;;;;;;;0.60;0.60;;;;;;;3.19;100.00;95631.44;3720622;78;43664;-18
2020/12/29 12:30:17;;;;;;;0.60;0.57;;;;;;;3.21;100.00;95641.40;3746917;78;43198;-18
2020/12/29 12:35:23;;;;;;;0.50;0.50;;;;;;;3.15;100.00;95663.39;3704273;79;43697;-18
2020/12/29 12:40:29;;;;;;;0.90;0.70;;;;;;;3.10;100.00;95676.44;3703131;80;44212;-18
2020/12/29 12:45:34;;;;;;;0.63;0.60;;;;;;;3.14;100.00;95676.37;3703852;80;44095;-18
2020/12/29 12:50:40;;;;;;;0.50;0.50;;;;;;;3.30;100.00;95694.83;3703496;79;42786;-18
2020/12/29 12:55:46;;;;;;;0.50;0.50;;;;;;;3.23;100.00;95700.57;3703272;78;44063;-18
2020/12/29 13:00:51;;;;;;;0.60;0.60;;;;;;;3.22;100.00;95703.72;3746032;79;44038;-18
2020/12/29 13:05:57;;;;;;;0.60;0.60;;;;;;;3.22;100.00;95717.02;3763871;79;43346;-18
2020/12/29 13:11:03;;;;;;;0.70;0.70;;;;;;;3.30;100.00;95721.92;3763227;79;43713;-18
2020/12/29 13:16:09;;;;;;;0.60;0.60;;;;;;;3.39;100.00;95740.30;3763739;79;44075;-18
2020/12/29 13:21:16;;;;;;;0.60;0.60;;;;;;;3.53;100.00;95752.47;3763058;77;43376;-18
2020/12/29 13:26:23;;;;;;;0.97;0.80;;;;;;;3.50;100.00;95764.80;3761396;77;43469;-18
2020/12/29 13:31:29;;;;;;;0.90;0.80;;;;;;;3.50;100.00;95772.78;3776339;77;43279;-18
2020/12/29 13:36:34;;;;;;;0.60;0.60;;;;;;;3.46;100.00;95795.47;3761642;79;44565;-18
2020/12/29 13:41:40;;;;;;;1.57;1.07;;;;;;;3.37;100.00;95804.02;3760373;79;44824;-18
2020/12/29 13:46:47;;;;;;;0.90;0.60;;;;;;;3.40;100.00;95816.98;3764234;79;44054;-18
2020/12/29 13:51:53;;;;;;;0.67;0.67;;;;;;;3.39;100.00;95840.08;3762538;77;43682;-18
2020/12/29 13:57:00;;;;;;;0.73;0.70;;;;;;;3.36;100.00;95843.09;3764051;79;44083;-18
2020/12/29 14:02:06;;;;;;;1.03;0.70;;;;;;;3.39;100.00;95857.90;3771128;77;44082;-18
2020/12/29 14:07:11;;;;;;;1.30;0.70;;;;;;;3.37;100.00;95867.38;3764205;77;43268;-18
2020/12/29 14:12:18;;;;;;;0.70;0.70;;;;;;;3.36;100.00;95881.69;3761137;77;43282;-18
2020/12/29 14:17:24;;;;;;;1.00;0.80;;;;;;;3.35;100.00;95888.52;3762591;77;44049;-18
2020/12/29 14:22:30;;;;;;;0.70;0.70;;;;;;;3.34;100.00;95899.69;3762497;77;44967;-18
2020/12/29 14:27:36;;;;;;;0.90;0.80;;;;;;;3.32;100.00;95919.47;3763909;77;43271;-19
2020/12/29 14:32:45;;;;;;;1.10;0.90;;;;;;;3.23;100.00;95920.06;3769795;77;44059;-19
2020/12/29 14:37:51;;;;;;;1.17;0.80;;;;;;;3.21;100.00;95938.84;3780372;78;44061;-19
2020/12/29 14:42:58;;;;;;;1.07;0.90;;;;;;;3.25;100.00;95947.29;3753923;77;43325;-19
2020/12/29 14:48:04;;;;;;;0.90;0.70;;;;;;;3.35;100.00;95960.38;3750860;77;43583;-19
2020/12/29 14:53:12;;;;;;;0.67;0.67;;;;;;;3.28;100.00;95972.73;3750937;77;44473;-19
2020/12/29 14:58:21;;;;;;;0.70;0.70;;;;;;;3.22;100.00;95976.93;3754345;77;43998;-19
2020/12/29 15:03:27;;;;;;;0.80;0.70;;;;;;;3.17;100.00;95981.94;3753936;77;42625;-19
2020/12/29 15:08:34;;;;;;;1.10;1.00;;;;;;;3.02;100.00;95981.34;3753915;77;43329;-19
2020/12/29 15:13:41;;;;;;;3.60;1.80;;;;;;;3.01;100.00;95991.65;3754057;77;42783;-19
2020/12/29 15:18:47;;;;;;;3.30;1.50;;;;;;;2.98;100.00;95993.34;3750038;77;43689;-19
2020/12/29 15:23:53;;;;;;;2.80;1.90;;;;;;;2.96;100.00;95989.18;3760788;79;43959;-19
2020/12/29 15:28:59;;;;;;;3.53;2.40;;;;;;;2.84;100.00;95984.25;3764152;79;44029;-19
2020/12/29 15:34:05;;;;;;;4.63;2.80;;;;;;;2.74;100.00;95995.11;3762892;77;43677;-19
2020/12/29 15:39:11;;;;;;;4.43;2.83;;;;;;;2.64;100.00;96006.93;3780729;77;43672;-18
2020/12/29 15:44:17;;;;;;;3.37;2.50;;;;;;;2.51;100.00;96025.57;3763463;77;44637;-19
2020/12/29 15:49:24;;;;;;;3.20;2.70;;;;;;;2.30;100.00;96025.62;3761580;77;43999;-19
2020/12/29 15:54:29;;;;;;;3.57;2.73;;;;;;;2.19;100.00;96031.77;3760259;77;44098;-18
2020/12/29 15:59:35;;;;;;;3.40;2.70;;;;;;;2.08;100.00;96055.52;3752455;79;44845;-19
2020/12/29 16:04:42;;;;;;;8.23;5.60;;;;;;;1.93;100.00;96059.34;3701140;79;43306;-19
2020/12/29 16:09:47;;;;;;;8.20;5.80;;;;;;;1.86;100.00;96067.14;3719352;78;43489;-18
2020/12/29 16:14:54;;;;;;;13.80;8.67;;;;;;;1.88;100.00;96078.91;3701938;80;44043;-19
2020/12/29 16:20:00;;;;;;;5.00;3.30;;;;;;;1.89;100.00;96095.99;3701981;79;44418;-18
2020/12/29 16:25:06;;;;;;;7.17;4.70;;;;;;;1.91;100.00;96101.97;3701572;79;43439;-18
2020/12/29 16:30:14;;;;;;;2.97;2.17;;;;;;;1.89;100.00;96105.28;3702143;80;43009;-18
2020/12/29 16:35:20;;;;;;;3.80;2.60;;;;;;;1.78;100.00;96117.06;3701366;79;44019;-18
2020/12/29 16:40:26;;;;;;;4.77;3.77;;;;;;;1.79;100.00;96117.41;3707163;78;43686;-19
2020/12/29 16:45:32;;;;;;;20.23;14.40;;;;;;;1.74;100.00;96125.52;3714516;79;44086;-19
2020/12/29 16:50:38;;;;;;;7.43;5.17;;;;;;;1.72;100.00;96133.62;3702225;79;43973;-19
2020/12/29 16:55:44;;;;;;;6.90;5.03;;;;;;;1.68;100.00;96140.27;3690346;79;43989;-18
2020/12/29 17:00:50;;;;;;;7.30;4.97;;;;;;;1.65;100.00;96144.56;3690442;79;43713;-18
2020/12/29 17:05:57;;;;;;;7.93;5.73;;;;;;;1.59;100.00;96155.84;3686017;80;43433;-18
2020/12/29 17:11:03;;;;;;;4.97;3.37;;;;;;;1.53;100.00;96155.96;3651236;80;43419;-18
2020/12/29 17:16:10;;;;;;;4.53;2.80;;;;;;;1.41;100.00;96164.72;3690647;80;44062;-18
2020/12/29 17:21:18;;;;;;;4.83;3.00;;;;;;;1.45;100.00;96177.16;3677323;80;43374;-18
2020/12/29 17:26:26;;;;;;;7.60;4.87;;;;;;;1.41;100.00;96179.31;3702699;79;43302;-17
2020/12/29 17:31:32;;;;;;;64.83;34.00;;;;;;;1.41;100.00;96175.33;3561863;83;43692;-19
2020/12/29 17:36:39;;;;;;;14.83;9.20;;;;;;;1.40;100.00;96193.56;3691188;78;44034;-24
2020/12/29 17:41:46;;;;;;;9.03;5.30;;;;;;;1.32;100.00;96206.28;3650106;81;44040;-18
2020/12/29 17:46:53;;;;;;;6.50;4.40;;;;;;;1.30;100.00;96210.09;3626969;80;43635;-17
2020/12/29 17:51:59;;;;;;;6.13;4.40;;;;;;;1.32;100.00;96218.22;3673273;80;43991;-18
2020/12/29 17:57:05;;;;;;;8.77;5.77;;;;;;;1.42;100.00;96234.03;3720362;78;44055;-18
2020/12/29 18:02:11;;;;;;;9.83;6.40;;;;;;;1.40;100.00;96237.84;3708126;78;44008;-18
2020/12/29 18:07:20;;;;;;;6.13;3.50;;;;;;;1.34;100.00;96253.89;3702931;79;44007;-18
2020/12/29 18:12:25;;;;;;;7.83;4.80;;;;;;;1.30;100.00;96259.98;3696968;80;43721;-17
2020/12/29 18:17:31;;;;;;;11.67;6.80;;;;;;;1.30;100.00;96267.94;3699896;78;43298;-18
2020/12/29 18:22:41;;;;;;;9.50;6.50;;;;;;;1.31;100.00;96270.12;3699571;80;44406;-18
2020/12/29 18:27:46;;;;;;;6.97;4.40;;;;;;;1.27;100.00;96275.38;3703097;80;43171;-17
2020/12/29 18:32:51;;;;;;;9.80;6.47;;;;;;;1.14;100.00;96283.26;3702289;79;43677;-18
2020/12/29 18:37:59;;;;;;;9.33;5.73;;;;;;;1.13;100.00;96288.22;3700819;79;43768;-18
2020/12/29 18:43:05;;;;;;;27.70;16.63;;;;;;;1.14;100.00;96291.21;3701721;80;43717;-18
2020/12/29 18:48:11;;;;;;;6.03;4.17;;;;;;;1.16;100.00;96295.88;3702926;79;44570;-17
2020/12/29 18:53:18;;;;;;;8.40;5.50;;;;;;;1.16;100.00;96298.52;3716215;78;44622;-17
2020/12/29 18:58:24;;;;;;;4.33;3.20;;;;;;;1.16;100.00;96307.81;3702828;79;44028;-17
2020/12/29 19:03:30;;;;;;;4.40;3.93;;;;;;;1.14;100.00;96325.69;3711471;78;44425;-21
2020/12/29 19:08:37;;;;;;;13.83;8.80;;;;;;;1.12;100.00;96327.66;3680782;79;44189;-18
2020/12/29 19:13:43;;;;;;;6.57;4.53;;;;;;;1.16;100.00;96346.77;3681851;79;43302;-18
2020/12/29 19:18:50;;;;;;;6.60;4.10;;;;;;;1.16;100.00;96352.89;3647237;81;43546;-17
2020/12/29 19:23:56;;;;;;;7.10;4.77;;;;;;;1.11;100.00;96359.17;3649762;80;43945;-18
2020/12/29 19:29:02;;;;;;;8.07;5.50;;;;;;;1.17;100.00;96359.87;3648127;80;43491;-18
2020/12/29 19:34:08;;;;;;;4.27;3.23;;;;;;;1.11;100.00;96372.90;3681410;79;44053;-18
2020/12/29 19:39:15;;;;;;;4.53;3.30;;;;;;;1.05;100.00;96380.97;3678875;80;43320;-18
2020/12/29 19:44:21;;;;;;;10.10;5.33;;;;;;;1.04;100.00;96383.28;3624192;80;43444;-18
2020/12/29 19:49:27;;;;;;;10.13;5.53;;;;;;;1.11;100.00;96390.14;3614457;82;44026;-18
2020/12/29 19:54:34;;;;;;;7.50;4.77;;;;;;;1.15;100.00;96392.84;3589063;81;43990;-18
2020/12/29 19:59:40;;;;;;;6.63;4.20;;;;;;;1.17;100.00;96398.32;3610590;82;44068;-18
2020/12/29 20:04:46;;;;;;;5.23;3.40;;;;;;;1.21;100.00;96393.06;3639514;80;44037;-19
2020/12/29 20:09:52;;;;;;;4.37;3.10;;;;;;;1.19;100.00;96385.75;3650265;80;43683;-20
2020/12/29 20:14:57;;;;;;;6.00;4.47;;;;;;;1.29;100.00;96396.76;3614236;81;43762;-20
2020/12/29 20:20:05;;;;;;;12.63;8.80;;;;;;;1.36;100.00;96400.45;3639327;80;44199;-19
2020/12/29 20:25:11;;;;;;;91.77;46.83;;;;;;;1.41;100.00;96406.14;3641342;80;43685;-19
2020/12/29 20:30:18;;;;;;;8.13;5.33;;;;;;;1.44;100.00;96412.48;3636044;81;43360;-19
2020/12/29 20:35:25;;;;;;;5.87;4.87;;;;;;;1.37;100.00;96418.04;3628427;80;42115;-20
2020/12/29 20:40:31;;;;;;;8.60;7.03;;;;;;;1.35;100.00;96409.42;3642463;80;43695;-18
2020/12/29 20:45:37;;;;;;;14.67;12.07;;;;;;;1.34;100.00;96410.41;3650696;80;44082;-19
2020/12/29 20:50:44;;;;;;;14.90;8.60;;;;;;;1.32;100.00;96419.01;3638251;80;43378;-19
2020/12/29 20:55:50;;;;;;;9.30;6.90;;;;;;;1.27;100.00;96417.30;3639521;80;44078;-19
2020/12/29 21:00:56;;;;;;;5.20;3.40;;;;;;;1.26;100.00;96427.08;3631471;80;44041;-19
2020/12/29 21:06:03;;;;;;;3.60;3.00;;;;;;;1.28;100.00;96437.05;3565932;81;43717;-18
2020/12/29 21:11:09;;;;;;;4.10;3.10;;;;;;;1.26;100.00;96444.80;3673287;80;43982;-18
2020/12/29 21:16:19;;;;;;;13.67;7.43;;;;;;;1.31;100.00;96442.53;3599527;81;43317;-18
2020/12/29 21:21:27;;;;;;;8.60;5.93;;;;;;;1.37;100.00;96455.18;3686797;79;43484;-18
2020/12/29 21:26:35;;;;;;;9.37;6.43;;;;;;;1.43;100.00;96459.89;3622943;82;43103;-18
2020/12/29 21:31:43;;;;;;;5.20;4.00;;;;;;;1.44;100.00;96465.55;3702419;78;42816;-18
2020/12/29 21:36:49;;;;;;;5.73;3.30;;;;;;;1.45;100.00;96465.89;3630190;80;43726;-20
2020/12/29 21:41:55;;;;;;;7.60;5.43;;;;;;;1.45;100.00;96467.22;3701076;80;43722;-19
2020/12/29 21:47:03;;;;;;;5.77;2.70;;;;;;;1.47;100.00;96469.70;3531704;80;26460;-20
2020/12/29 21:52:09;;;;;;;4.07;2.90;;;;;;;1.49;100.00;96469.88;3592655;81;44035;-19
2020/12/29 21:57:16;;;;;;;4.57;2.83;;;;;;;1.42;100.00;96460.88;3592419;82;43489;-19
2020/12/29 22:02:22;;;;;;;5.23;3.00;;;;;;;1.37;100.00;96458.69;3590645;81;43729;-19
2020/12/29 22:07:29;;;;;;;4.40;2.80;;;;;;;1.40;100.00;96460.19;3525074;83;44017;-19
2020/12/29 22:12:35;;;;;;;4.07;3.07;;;;;;;1.44;100.00;96451.42;3611429;81;44429;-19
2020/12/29 22:17:42;;;;;;;4.63;2.43;;;;;;;1.38;100.00;96455.52;3581521;83;43306;-19
2020/12/29 22:22:47;;;;;;;3.23;2.37;;;;;;;1.33;100.00;96459.96;3589394;81;43684;-19
2020/12/29 22:27:54;;;;;;;5.57;2.20;;;;;;;1.30;100.00;96462.09;3581518;83;44043;-19
2020/12/29 22:33:00;;;;;;;3.50;2.17;;;;;;;1.25;100.00;96455.92;3581876;83;43681;-19
2020/12/29 22:38:06;;;;;;;4.27;1.90;;;;;;;1.20;100.00;96457.70;3579361;81;43044;-19
2020/12/29 22:43:12;;;;;;;3.47;1.80;;;;;;;1.14;100.00;96458.28;3580812;83;43722;-19
2020/12/29 22:48:18;;;;;;;3.60;1.90;;;;;;;1.19;100.00;96467.11;3581461;83;44765;-19
2020/12/29 22:53:25;;;;;;;3.20;1.77;;;;;;;1.25;100.00;96464.34;3559918;83;44142;-19
2020/12/29 22:58:32;;;;;;;3.00;2.13;;;;;;;1.32;100.00;96468.09;3581741;83;43348;-19
2020/12/29 23:03:38;;;;;;;3.20;2.10;;;;;;;1.33;100.00;96464.45;3583430;81;43414;-19
2020/12/29 23:08:43;;;;;;;2.97;2.00;;;;;;;1.32;100.00;96465.44;3590305;81;43535;-19
2020/12/29 23:13:50;;;;;;;2.80;2.00;;;;;;;1.36;100.00;96458.81;3591583;82;43674;-19
2020/12/29 23:18:55;;;;;;;4.00;2.23;;;;;;;1.48;100.00;96454.13;3592496;82;44571;-19
2020/12/29 23:24:02;;;;;;;3.30;2.30;;;;;;;1.50;100.00;96456.95;3580796;82;44455;-19
2020/12/29 23:29:09;;;;;;;4.47;2.23;;;;;;;1.52;100.00;96469.59;3592798;82;44416;-20
2020/12/29 23:34:15;;;;;;;3.77;2.13;;;;;;;1.56;100.00;96455.52;3592549;82;43708;-20
2020/12/29 23:39:24;;;;;;;4.50;2.53;;;;;;;1.52;100.00;96464.28;3627191;81;43530;-20
2020/12/29 23:44:30;;;;;;;3.10;2.17;;;;;;;1.46;100.00;96460.92;3592182;82;44035;-19
2020/12/29 23:49:36;;;;;;;5.27;2.63;;;;;;;1.46;100.00;96468.88;3592936;81;43652;-19
2020/12/29 23:54:42;;;;;;;2.60;2.20;;;;;;;1.51;100.00;96466.59;3592425;82;43310;-19